SHT310 EGPK-EGBB
Flight info
| Callsign | SHT310 |
|---|---|
| Flight time | N/A |
| Altitude | 27000 |
| Route | LUCCO Z248 OSMEG T256 DCS DCT AKOMU DCT VAMEB UL612 CROFT |
| Aircraft | A20N/M-SDE2E3FGHIRWXY/LB1 |
Departure
| Time | 2026-05-05 09:47 |
|---|---|
| Airport | Glasgow Prestwick Airport (EGPK) |
Arrival
| Time | N/A |
|---|---|
| Airport | Birmingham Airport (EGBB) |
| Time | Latitude | Longitude | Altitude | Speed | Heading |
|---|---|---|---|---|---|
| 2026-05-05 09:24 | 55.51036 | -4.61037 | 77 ft | 0 kts | 121° |
| 2026-05-05 09:36 | 55.51041 | -4.61055 | 77 ft | 2 kts | 115° |
| 2026-05-05 09:37 | 55.51048 | -4.61077 | 77 ft | 2 kts | 123° |
| 2026-05-05 09:37 | 55.51055 | -4.61096 | 77 ft | 1 kts | 121° |
| 2026-05-05 09:37 | 55.51061 | -4.61112 | 77 ft | 2 kts | 110° |
| 2026-05-05 09:37 | 55.51064 | -4.61136 | 77 ft | 2 kts | 95° |
| 2026-05-05 09:38 | 55.51064 | -4.61161 | 77 ft | 2 kts | 79° |
| 2026-05-05 09:38 | 55.51059 | -4.61185 | 77 ft | 2 kts | 63° |
| 2026-05-05 09:38 | 55.51051 | -4.61207 | 77 ft | 2 kts | 47° |
| 2026-05-05 09:38 | 55.51043 | -4.61220 | 77 ft | 0 kts | 34° |
| 2026-05-05 09:39 | 55.51037 | -4.61226 | 77 ft | 0 kts | 31° |
| 2026-05-05 09:40 | 55.51038 | -4.61225 | 77 ft | 0 kts | 31° |
| 2026-05-05 09:40 | 55.51058 | -4.61203 | 77 ft | 9 kts | 33° |
| 2026-05-05 09:40 | 55.51123 | -4.61103 | 77 ft | 14 kts | 49° |
| 2026-05-05 09:41 | 55.51183 | -4.60960 | 77 ft | 15 kts | 57° |
| 2026-05-05 09:41 | 55.51197 | -4.60793 | 77 ft | 15 kts | 116° |
| 2026-05-05 09:41 | 55.51143 | -4.60629 | 77 ft | 16 kts | 122° |
| 2026-05-05 09:41 | 55.51083 | -4.60460 | 77 ft | 17 kts | 121° |
| 2026-05-05 09:42 | 55.51021 | -4.60283 | 77 ft | 17 kts | 121° |
| 2026-05-05 09:42 | 55.50959 | -4.60100 | 77 ft | 18 kts | 120° |
| 2026-05-05 09:42 | 55.50895 | -4.59912 | 77 ft | 18 kts | 121° |
| 2026-05-05 09:42 | 55.50827 | -4.59721 | 77 ft | 19 kts | 122° |
| 2026-05-05 09:43 | 55.50759 | -4.59524 | 77 ft | 19 kts | 121° |
| 2026-05-05 09:43 | 55.50691 | -4.59327 | 77 ft | 19 kts | 121° |
| 2026-05-05 09:43 | 55.50621 | -4.59125 | 77 ft | 19 kts | 121° |
| 2026-05-05 09:43 | 55.50557 | -4.58915 | 77 ft | 20 kts | 116° |
| 2026-05-05 09:44 | 55.50498 | -4.58698 | 77 ft | 20 kts | 119° |
| 2026-05-05 09:44 | 55.50427 | -4.58491 | 77 ft | 20 kts | 121° |
| 2026-05-05 09:44 | 55.50354 | -4.58284 | 77 ft | 20 kts | 121° |
| 2026-05-05 09:44 | 55.50281 | -4.58075 | 77 ft | 20 kts | 120° |
| 2026-05-05 09:45 | 55.50211 | -4.57866 | 77 ft | 19 kts | 118° |
| 2026-05-05 09:45 | 55.50216 | -4.57679 | 77 ft | 18 kts | 30° |
| 2026-05-05 09:45 | 55.50319 | -4.57674 | 77 ft | 17 kts | 308° |
| 2026-05-05 09:45 | 55.50325 | -4.57690 | 77 ft | 0 kts | 303° |
| 2026-05-05 09:46 | 55.50336 | -4.57719 | 77 ft | 11 kts | 302° |
| 2026-05-05 09:46 | 55.50471 | -4.58116 | 77 ft | 76 kts | 301° |
| 2026-05-05 09:46 | 55.50860 | -4.59241 | 77 ft | 139 kts | 301° |
| 2026-05-05 09:46 | 55.51434 | -4.60922 | 410 ft | 163 kts | 301° |
| 2026-05-05 09:47 | 55.51997 | -4.62564 | 1191 ft | 160 kts | 303° |
| 2026-05-05 09:47 | 55.52575 | -4.64233 | 1880 ft | 165 kts | 304° |
| 2026-05-05 09:47 | 55.53018 | -4.66144 | 2302 ft | 186 kts | 275° |
| 2026-05-05 09:47 | 55.52579 | -4.68398 | 2734 ft | 208 kts | 236° |
| 2026-05-05 09:48 | 55.51597 | -4.70429 | 3190 ft | 228 kts | 229° |
| 2026-05-05 09:48 | 55.50480 | -4.72574 | 3714 ft | 245 kts | 226° |
| 2026-05-05 09:48 | 55.49108 | -4.74215 | 4629 ft | 246 kts | 198° |
| 2026-05-05 09:48 | 55.47444 | -4.74754 | 5401 ft | 248 kts | 185° |
| 2026-05-05 09:49 | 55.45725 | -4.74955 | 5860 ft | 252 kts | 184° |
| 2026-05-05 09:49 | 55.43909 | -4.75049 | 5997 ft | 274 kts | 171° |
| 2026-05-05 09:49 | 55.42152 | -4.73788 | 5995 ft | 278 kts | 139° |
| 2026-05-05 09:49 | 55.40905 | -4.71244 | 6008 ft | 276 kts | 122° |
| 2026-05-05 09:50 | 55.39823 | -4.68492 | 5997 ft | 275 kts | 122° |
| 2026-05-05 09:50 | 55.38729 | -4.65767 | 5997 ft | 275 kts | 123° |
| 2026-05-05 09:50 | 55.37608 | -4.63057 | 5999 ft | 275 kts | 124° |
| 2026-05-05 09:50 | 55.36468 | -4.60358 | 6001 ft | 276 kts | 124° |
| 2026-05-05 09:51 | 55.35324 | -4.57672 | 6002 ft | 276 kts | 124° |
| 2026-05-05 09:51 | 55.34165 | -4.54979 | 6020 ft | 279 kts | 125° |
| 2026-05-05 09:51 | 55.32963 | -4.52265 | 6543 ft | 287 kts | 126° |
| 2026-05-05 09:51 | 55.31762 | -4.49575 | 7602 ft | 285 kts | 126° |
| 2026-05-05 09:52 | 55.30549 | -4.46853 | 8519 ft | 288 kts | 126° |
| 2026-05-05 09:52 | 55.29311 | -4.44078 | 9346 ft | 294 kts | 127° |
| 2026-05-05 09:52 | 55.28053 | -4.41258 | 10160 ft | 300 kts | 127° |
| 2026-05-05 09:52 | 55.26752 | -4.38348 | 10790 ft | 312 kts | 127° |
| 2026-05-05 09:53 | 55.25382 | -4.35288 | 11245 ft | 330 kts | 127° |
| 2026-05-05 09:53 | 55.23934 | -4.32058 | 11659 ft | 348 kts | 128° |
| 2026-05-05 09:53 | 55.22407 | -4.28655 | 12107 ft | 364 kts | 128° |
| 2026-05-05 09:53 | 55.20837 | -4.25161 | 12822 ft | 370 kts | 128° |
| 2026-05-05 09:54 | 55.19254 | -4.21639 | 13588 ft | 373 kts | 128° |
| 2026-05-05 09:54 | 55.17651 | -4.18080 | 14337 ft | 377 kts | 128° |
| 2026-05-05 09:54 | 55.16029 | -4.14481 | 15043 ft | 382 kts | 129° |
| 2026-05-05 09:54 | 55.14374 | -4.10865 | 15745 ft | 385 kts | 131° |
| 2026-05-05 09:55 | 55.12587 | -4.07380 | 16421 ft | 389 kts | 134° |
| 2026-05-05 09:55 | 55.10720 | -4.03937 | 17109 ft | 392 kts | 134° |
| 2026-05-05 09:55 | 55.08845 | -4.00499 | 17800 ft | 395 kts | 135° |
| 2026-05-05 09:55 | 55.06969 | -3.97062 | 18448 ft | 398 kts | 135° |
| 2026-05-05 09:56 | 55.05058 | -3.93565 | 19083 ft | 402 kts | 135° |
| 2026-05-05 09:56 | 55.03144 | -3.90061 | 19710 ft | 405 kts | 135° |
| 2026-05-05 09:56 | 55.01204 | -3.86514 | 20326 ft | 408 kts | 135° |
| 2026-05-05 09:56 | 54.99246 | -3.82934 | 20915 ft | 412 kts | 135° |
| 2026-05-05 09:57 | 54.97270 | -3.79328 | 21495 ft | 416 kts | 135° |
| 2026-05-05 09:57 | 54.95277 | -3.75699 | 22084 ft | 419 kts | 135° |
| 2026-05-05 09:57 | 54.93271 | -3.72052 | 22654 ft | 422 kts | 135° |
| 2026-05-05 09:57 | 54.91250 | -3.68390 | 23208 ft | 424 kts | 135° |